MSQ weather

Minsk National Airport
Minsk, Minsk Voblast, Belarus

Public forecast

Using degrees Celsius for public forecast. Weather courtesy of forecast.io.

METAR (pilot weather report)

Retrieved 2019/04/25 21:30 UTC (21 minutes ago):

UMMS 252130Z 00000MPS CAVOK 09/M01 Q1020 R88/D NOSIG

TAF (pilot weather forecast)

Retrieved 2019/04/25 18:21 UTC (4 hours ago):

TAF UMMS 251700Z 2518/2618 15005MPS 9999 FEW030 TEMPO 2606/2615 17010G15MPS 3000 BLDU